スィクティフカル の空港の天気 - METARとTAF

Syktyvkar ( UUYY / SCW ) - ロシア スィクティフカル
飛行場実況気象(Metar)
観測時間03/30 15:00 MSK (03/30 12:00 UTC)
風向・風速北北西 4m/s
視程10km以上
天気現象
全天の8割程度の雲 雲底高度 1220m
気温-2℃
湿度36%
気圧1003hPa
METARUUYY 301200Z 33004MPS 9999 BKN040 M02/M15 Q1003 R01/09//61 NOSIG RMK QFE743/0991
過去の天気等 Google飛行場航空写真 Wunderground天気予報

過去48時間のMETAR

飛行場予報(TAF)
発表時間: 3/30 14:00 MSK (3/30 11:00 UTC)
予報対象時間: 30日15時 MSK ~ 31日15時 MSK
風向・風速北西 4m/s
視程10km以上
全天の8割程度の雲 雲底高度 340m
全天の8割程度の積乱雲 雲底高度 460m
30日15時 MSK ~ 30日21時 MSK に一時的に
風向・風速北西 5m/s 瞬間風速 10m/s
視程1,000m
天気現象しゅう雪
全天の8割程度の雲 雲底高度 210m
全天の8割程度の積乱雲 雲底高度 370m
30日21時 MSK ~ 31日9時 MSK に一時的に
風向・風速西北西 3m/s 瞬間風速 8m/s
視程1,000m
天気現象しゅう雪 もや
全天の8割程度の雲 雲底高度 150m
全天の8割程度の積乱雲 雲底高度 370m
31日9時 MSK ~ 31日12時 MSK に徐々に
風向・風速西 3m/s 瞬間風速 8m/s
TAF UUYY 301100Z 3012/3112 32004MPS 9999 BKN011 BKN015CB
TEMPO 3012/3018 32005G10MPS 1000 SHSN BKN007 BKN012CB
TEMPO 3018/3106 30003G08MPS 1000 SHSN BR BKN005 BKN012CB
BECMG 3106/3109 27003G08MPS